Tiempo atmosférico en la estación meteorológica de Balsareny, Barcelona (352 m.)

Fecha
DESCASC
Temp. máxima en grados centígrados (hora)
DESCASC
Temp. mínima en grados centígrados (hora)
DESCASC
Temp. media en grados centígrados
DESCASC
Racha de viento máxima en m/sg (hora)
DESCASC
Velocidad máxima media en intervalos de 10 minutos(hora)
DESCASC
Precipitaciones diarias en mm
DESCASC
Precipitaciones de 00:00 a 06:00 en mm
DESCASC
Precipitaciones de 06:00 a 12:00 en mm
DESCASC
Precipitaciones de 12:00 a 18:00 en mm
DESCASC
Precipitaciones de 18:00 a 24:00 en mm
DESCASC
17-08-2017 35.6 (15:40) 16.3 (06:40) 25.9 11.39 (16:30) 6.94 (17:50) 0 0 0 0 0
16-08-2017 33.9 (16:40) 15.5 (06:40) 24.7 8.89 (17:10) 6.11 (19:00) 0 0 0 0 0
15-08-2017 33.4 (14:00) 11.9 (00:00) 22.7 11.11 (15:30) 7.78 (15:30) 1.8 0 0 0 1.8
14-08-2017 33 (15:40) 14 (07:10) 23.5 10.83 (18:10) 7.78 (18:10) 0 0 0 0 0
13-08-2017 31 (15:30) 12.6 (00:00) 21.8 9.44 (17:00) 6.11 (16:20) 0 0 0 0 0
12-08-2017 29.5 (16:30) 13.1 (00:00) 21.3 11.94 (16:00) 6.67 (17:40) 0 0 0 0 0
11-08-2017 26.8 (15:40) 12.4 (00:00) 19.6 10 (15:10) 6.11 (15:10) 0 0 0 0 0
10-08-2017 26.8 (18:00) 12.3 (00:00) 19.5 10.83 (18:40) 6.67 (18:40) 1.6 1.6 0 0 0
09-08-2017 26.4 (17:00) 11.6 (00:00) 19 10.83 (15:20) 6.39 (15:20) 4 0 0 0 4
08-08-2017 30.7 (17:40) 20.9 (00:00) 25.8 12.5 (17:10) 6.67 (16:50) 0 0 0 0 0
07-08-2017 31.5 (15:30) 18.6 (00:00) 25.1 11.67 (16:00) 7.5 (16:00) 0 0 0 0 0
06-08-2017 33.5 (14:30) 20.3 (00:00) 26.9 11.67 (19:10) 7.78 (19:00) 0.8 0 0.8 0 0
05-08-2017 37.2 (15:50) 19.4 (00:00) 28.3 11.11 (18:30) 7.22 (18:00) 0 0 0 0 0
04-08-2017 39.2 (16:00) 18.4 (00:00) 28.8 9.44 (18:50) 6.67 (18:50) 0 0 0 0 0
03-08-2017 38.4 (14:40) 20.2 (00:00) 29.3 12.22 (15:30) 8.06 (15:30) 0 0 0 0 0
02-08-2017 36.9 (14:40) 16.7 (00:00) 26.8 11.94 (18:40) 8.06 (18:50) 0 0 0 0 0
01-08-2017 30.3 (11:30) 17.8 (00:00) 24 7.5 (12:50) 4.17 (11:40) 0.8 0 0 0.8 0
31-07-2017 37.8 (15:00) 18.9 (00:00) 28.3 9.72 (18:00) 5.83 (16:30) 0 0 0 0 0
30-07-2017 35.7 (15:30) 15.8 (00:00) 25.8 10.83 (19:40) 7.5 (19:10) 0 0 0 0 0
29-07-2017 33.8 (15:20) 16.5 (00:00) 25.1 10.28 (16:30) 6.94 (16:40) 0 0 0 0 0
28-07-2017 33.2 (17:00) 17.4 (00:00) 25.3 9.72 (18:50) 6.67 (20:10) 0 0 0 0 0
27-07-2017 35.5 (16:20) 13.9 (00:00) 24.7 11.39 (18:30) 7.78 (18:10) 0 0 0 0 0
26-07-2017 30.7 (16:50) 14.9 (00:00) 22.8 10.28 (17:30) 6.39 (17:30) 0 0 0 0 0
25-07-2017 31.1 (17:20) 17.1 (00:00) 24.1 11.39 (19:20) 7.5 (20:10) 0 0 0 0 0
24-07-2017 32.2 (18:00) 15.6 (00:00) 23.9 10 (18:40) 6.11 (18:40) 0 0 0 0 0
23-07-2017 30.5 (15:40) 17.5 (00:00) 24 14.17 (19:20) 10 (19:30) 0 0 0 0 0
22-07-2017 31.7 (17:30) 15.4 (00:00) 23.6 10.83 (16:50) 6.67 (18:30) 0 0 0 0 0
21-07-2017 26.8 (18:40) 16.5 (00:00) 21.6 6.94 (12:00) 4.72 (12:00) 2.6 0 1.6 1 0
20-07-2017 32.9 (15:50) 17.1 (00:00) 25 9.17 (18:20) 5.56 (18:20) 0 0 0 0 0
19-07-2017 34.8 (14:20) 18.3 (00:00) 26.5 11.39 (16:20) 7.78 (15:00) 0 0 0 0 0

Gráficas

Temp. máximas Temp. mínimas Temp. medias Precipitaciones Rachas de viento máximas Velocidades máximas media en intervalos de 10 minutos

Datos horarios

Fecha y hora oficial Temperatura (ºC) Velocidad del viento (km/h) Dirección del viento Racha (km/h) Dirección de racha Precipitación (mm) Presión (hPa) Tendencia (hPa) Humedad (%)
2017-08-17 23:00:00 24.2 4 Sudoeste 14 Sudoeste 0 -- -- 68
2017-08-17 22:00:00 25.2 10 Sudoeste 17 Sur 0 -- -- 65
2017-08-17 21:00:00 26.9 11 Sur 23 Sur 0 -- -- 60
2017-08-17 20:00:00 28.7 16 Sur 33 Sur 0 -- -- 55
2017-08-17 19:00:00 30.8 22 Sur 35 Sur 0 -- -- 48
2017-08-17 18:00:00 32.1 23 Sur 39 Sur 0 -- -- 43
2017-08-17 17:00:00 34.2 22 Sur 41 Sur 0 -- -- 38
2017-08-17 16:00:00 35.3 23 Sur 35 Sur 0 -- -- 35
2017-08-17 15:00:00 35.5 17 Sur 29 Sur 0 -- -- 32
2017-08-17 14:00:00 33.8 13 Sur 27 Sur 0 -- -- 39
2017-08-17 13:00:00 31.8 12 Sudoeste 24 Sudeste 0 -- -- 45
2017-08-17 12:00:00 29.3 12 Sudeste 22 Sudeste 0 -- -- 51
2017-08-17 11:00:00 27.3 9 Sur 14 Sur 0 -- -- 57
2017-08-17 10:00:00 23.8 4 Sudeste 7 Este 0 -- -- 68
2017-08-17 09:00:00 20.2 3 Nordeste 5 Este 0 -- -- 80
2017-08-17 08:00:00 17.1 2 Nordeste 5 Norte 0 -- -- 91
2017-08-17 07:00:00 16.4 3 Noroeste 4 Norte 0 -- -- 93
2017-08-17 06:00:00 16.9 0 Calma 5 Norte 0 -- -- 90
2017-08-17 05:00:00 17.1 2 Norte 5 Norte 0 -- -- 90
2017-08-17 04:00:00 17.9 3 Oeste 8 Noroeste 0 -- -- 86
2017-08-17 03:00:00 18.5 5 Norte 9 Noroeste 0 -- -- 86
2017-08-17 02:00:00 19.8 4 Noroeste 6 Norte 0 -- -- 82
2017-08-17 01:00:00 20.8 0 Calma 11 Norte 0 -- -- 76
2017-08-17 00:00:00 22 2 Noroeste 8 Noroeste 0 -- -- 74
2017-08-16 23:00:00 23.5 5 Sudoeste 10 Sudoeste 0 -- -- 69
2017-08-16 22:00:00 24.5 9 Sur 17 Sur 0 -- -- 66
2017-08-16 21:00:00 26.5 11 Sur 27 Sur 0 -- -- 60
2017-08-16 20:00:00 29 18 Sur 31 Sur 0 -- -- 54
2017-08-16 19:00:00 31.3 22 Sur 31 Sur 0 -- -- 48
2017-08-16 18:00:00 32.1 19 Sur 32 Sur 0 -- -- 44
2017-08-16 17:00:00 33 17 Sur 28 Sur 0 -- -- 42
2017-08-16 16:00:00 33 14 Sur 28 Sudeste 0 -- -- 42
2017-08-16 15:00:00 31.9 13 Sur 23 Sudoeste 0 -- -- 45
2017-08-16 14:00:00 30.5 12 Sudeste 23 Sur 0 -- -- 48
2017-08-16 13:00:00 28.7 11 Sur 20 Sur 0 -- -- 53
2017-08-16 12:00:00 25.4 8 Sudeste 12 Sudeste 0 -- -- 68
2017-08-16 11:00:00 23.3 4 Sudeste 8 Sudeste 0 -- -- 66
2017-08-16 10:00:00 20.9 3 Sudeste 6 Sudeste 0 -- -- 76
2017-08-16 09:00:00 17.4 2 Norte 5 Noroeste 0 -- -- 96
2017-08-16 08:00:00 16.4 3 Norte 4 Nordeste 0 -- -- 98
2017-08-16 07:00:00 16 0 Calma 9 Norte 0 -- -- 98
2017-08-16 06:00:00 16 3 Norte 6 Norte 0 -- -- 98
2017-08-16 05:00:00 16 3 Norte 6 Noroeste 0 -- -- 97
2017-08-16 04:00:00 16.5 4 Norte 8 Noroeste 0 -- -- 96
2017-08-16 03:00:00 17.7 6 Norte 9 Noroeste 0 -- -- 97
2017-08-16 02:00:00 18.3 4 Norte 6 Noroeste 0 -- -- 94
2017-08-16 01:00:00 18.9 3 Sur 9 Norte 0 -- -- 95
2017-08-16 00:00:00 19.2 3 Sur 14 Noroeste 0 -- -- 94
2017-08-15 23:00:00 19.1 7 Norte 10 Norte 0 -- -- 95
2017-08-15 22:00:00 19.8 6 Norte 10 Norte 0 -- -- 93
2017-08-15 21:00:00 20.9 3 Sur 15 Noroeste 0 -- -- 90
2017-08-15 20:00:00 21.2 12 Noroeste 25 Sur 1.4 -- -- 87
2017-08-15 19:00:00 25 22 Sudoeste 33 Sudoeste 0.4 -- -- 62
2017-08-15 18:00:00 29.6 10 Sur 28 Sur 0 -- -- 40
2017-08-15 17:00:00 30.9 17 Sur 31 Sudeste 0 -- -- 42
2017-08-15 16:00:00 30.6 18 Sur 40 Sudoeste 0 -- -- 44
2017-08-15 15:00:00 33 22 Sudoeste 35 Sudoeste 0 -- -- 31
2017-08-15 14:00:00 33.4 13 Sur 26 Sur 0 -- -- 29
2017-08-15 13:00:00 32 12 Sur 21 Sudeste 0 -- -- 29
2017-08-15 12:00:00 29.7 6 Sur 12 Sudoeste 0 -- -- 27
2017-08-15 11:00:00 25.6 4 Sudeste 9 Sur 0 -- -- 45
2017-08-15 10:00:00 22.1 4 Sudeste 8 Este 0 -- -- 53
2017-08-15 09:00:00 17.8 4 Este 6 Nordeste 0 -- -- 68
2017-08-15 08:00:00 13.2 4 Norte 8 Noroeste 0 -- -- 84
2017-08-15 07:00:00 12.1 5 Norte 8 Norte 0 -- -- 86
2017-08-15 06:00:00 12.2 4 Noroeste 8 Norte 0 -- -- 87
2017-08-15 05:00:00 13.4 4 Noroeste 8 Norte 0 -- -- 84
2017-08-15 04:00:00 13.9 5 Norte 8 Norte 0 -- -- 82
2017-08-15 03:00:00 14.8 0 Calma 6 Noroeste 0 -- -- 78
2017-08-15 02:00:00 16.3 4 Noroeste 8 Norte 0 -- -- 72
2017-08-15 01:00:00 16.8 3 Norte 8 Norte 0 -- -- 69
2017-08-15 00:00:00 19.2 4 Noroeste 11 Norte 0 -- -- 62
2017-08-14 23:00:00 20.9 3 Noroeste 7 Noroeste 0 -- -- 56
2017-08-14 22:00:00 23.5 3 Norte 17 Sur 0 -- -- 49
2017-08-14 21:00:00 25.8 13 Sudoeste 26 Sur 0 -- -- 43
2017-08-14 20:00:00 27.3 19 Sur 33 Sur 0 -- -- 42
2017-08-14 19:00:00 29.3 24 Sur 39 Sur 0 -- -- 35
2017-08-14 18:00:00 31.2 24 Sur 36 Sur 0 -- -- 33
2017-08-14 17:00:00 32.5 22 Sur 34 Sur 0 -- -- 30
2017-08-14 16:00:00 32.7 17 Sur 31 Sudeste 0 -- -- 29
2017-08-14 15:00:00 32.4 18 Sur 34 Sur 0 -- -- 31
2017-08-14 14:00:00 32.1 17 Sur 30 Sur 0 -- -- 32
2017-08-14 13:00:00 31 12 Sur 24 Sudeste 0 -- -- 28
2017-08-14 12:00:00 29 13 Sur 21 Sudeste 0 -- -- 36
2017-08-14 11:00:00 25.6 10 Sur 15 Sur 0 -- -- 55
2017-08-14 10:00:00 21.7 5 Sur 8 Sur 0 -- -- 69
2017-08-14 09:00:00 18.7 3 Este 5 Este 0 -- -- 78
2017-08-14 08:00:00 15.4 2 Nordeste 6 Noroeste 0 -- -- 91
2017-08-14 07:00:00 14.1 2 Noroeste 8 Noroeste 0 -- -- 93
2017-08-14 06:00:00 14.8 5 Norte 7 Norte 0 -- -- 94
2017-08-14 05:00:00 15.5 2 Noroeste 7 Norte 0 -- -- 89
2017-08-14 04:00:00 16.2 3 Norte 6 Norte 0 -- -- 88
2017-08-14 03:00:00 17.2 4 Noroeste 7 Norte 0 -- -- 88
2017-08-14 02:00:00 18.4 7 Norte 9 Noroeste 0 -- -- 83
2017-08-14 01:00:00 18.5 5 Norte 8 Norte 0 -- -- 77
2017-08-14 00:00:00 20.9 4 Oeste 8 Noroeste 0 -- -- 76
2017-08-13 23:00:00 22.6 3 Sur 10 Sur 0 -- -- 70
2017-08-13 22:00:00 23.8 5 Sur 18 Sudoeste 0 -- -- 58
2017-08-13 21:00:00 25 13 Sur 26 Sudoeste 0 -- -- 55
2017-08-13 20:00:00 26.7 19 Sur 30 Sur 0 -- -- 52
2017-08-13 19:00:00 28.4 18 Sur 33 Sur 0 -- -- 46
2017-08-13 18:00:00 29.5 19 Sur 33 Sudeste 0 -- -- 44
2017-08-13 17:00:00 30 22 Sur 34 Sur 0 -- -- 43
2017-08-13 16:00:00 30.3 17 Sur 33 Sur 0 -- -- 42
2017-08-13 15:00:00 30.7 15 Sur 30 Sur 0 -- -- 34
2017-08-13 14:00:00 30.2 14 Sur 30 Sur 0 -- -- 33
2017-08-13 13:00:00 29 15 Sur 26 Sudeste 0 -- -- 33
2017-08-13 12:00:00 27.1 10 Sur 19 Sur 0 -- -- 40
2017-08-13 11:00:00 24.5 6 Sur 12 Sur 0 -- -- 51
2017-08-13 10:00:00 21.3 4 Este 8 Sudeste 0 -- -- 62
2017-08-13 09:00:00 17.6 3 Nordeste 5 Este 0 -- -- 74
2017-08-13 08:00:00 13.9 2 Nordeste 4 Noroeste 0 -- -- 89
2017-08-13 07:00:00 12.9 3 Noroeste 6 Noroeste 0 -- -- 90
2017-08-13 06:00:00 13.2 0 Calma 6 Noroeste 0 -- -- 90
2017-08-13 05:00:00 13.9 2 Noroeste 6 Noroeste 0 -- -- 88
2017-08-13 04:00:00 15.3 0 Calma 5 Noroeste 0 -- -- 84
2017-08-13 03:00:00 15.8 2 Norte 9 Noroeste 0 -- -- 82
2017-08-13 02:00:00 16.5 5 Noroeste 10 Norte 0 -- -- 79
2017-08-13 01:00:00 17.2 8 Norte 10 Norte 0 -- -- 77
2017-08-13 00:00:00 19 2 Sudeste 5 Sur 0 -- -- 70
2017-08-12 23:00:00 20.5 4 Sudoeste 10 Sur 0 -- -- 66
2017-08-12 22:00:00 21.8 8 Sur 19 Sudeste 0 -- -- 62
2017-08-12 21:00:00 23.7 11 Sur 27 Sur 0 -- -- 54
2017-08-12 20:00:00 25.6 16 Sur 32 Sur 0 -- -- 43
2017-08-12 19:00:00 27 21 Sur 33 Sur 0 -- -- 39
2017-08-12 18:00:00 28 22 Sur 37 Sur 0 -- -- 38
2017-08-12 17:00:00 29.3 22 Sur 32 Sur 0 -- -- 36
2017-08-12 16:00:00 29.2 14 Sur 43 Sur 0 -- -- 36
2017-08-12 15:00:00 28.5 15 Sur 27 Sur 0 -- -- 38
2017-08-12 14:00:00 27.1 11 Sudeste 22 Oeste 0 -- -- 44
2017-08-12 13:00:00 26.4 8 Sudeste 22 Sur 0 -- -- 47
2017-08-12 12:00:00 24.4 14 Sudeste 23 Sur 0 -- -- 53
2017-08-12 11:00:00 22.1 8 Sudeste 14 Sudeste 0 -- -- 64
2017-08-12 10:00:00 20.5 6 Sudeste 10 Sudeste 0 -- -- 71
2017-08-12 09:00:00 17 3 Este 8 Norte 0 -- -- 82
2017-08-12 08:00:00 14.1 0 Calma 6 Noroeste 0 -- -- 94
2017-08-12 07:00:00 13.4 5 Noroeste 7 Noroeste 0 -- -- 95
2017-08-12 06:00:00 14.5 0 Calma 9 Norte 0 -- -- 91
2017-08-12 05:00:00 15.4 0 Calma 7 Noroeste 0 -- -- 88
2017-08-12 04:00:00 15.7 2 Sudeste 9 Noroeste 0 -- -- 87
2017-08-12 03:00:00 16 9 Noroeste 10 Noroeste 0 -- -- 88
2017-08-12 02:00:00 16 8 Noroeste 9 Noroeste 0 -- -- 87
2017-08-12 01:00:00 16.3 6 Norte 10 Norte 0 -- -- 86
2017-08-12 00:00:00 17.9 0 Calma 5 Norte 0 -- -- 80
2017-08-11 23:00:00 18.4 3 Este 12 Sur 0 -- -- 77
2017-08-11 22:00:00 19.3 11 Sur 23 Sudeste 0 -- -- 75
2017-08-11 21:00:00 20.4 10 Sudeste 25 Sur 0 -- -- 69
2017-08-11 20:00:00 21.9 17 Sur 29 Sudeste 0 -- -- 62
2017-08-11 19:00:00 23.3 16 Sur 31 Sur 0 -- -- 58
2017-08-11 18:00:00 24.2 19 Sur 32 Sur 0 -- -- 50
2017-08-11 17:00:00 25.8 13 Oeste 32 Sudoeste 0 -- -- 30
2017-08-11 16:00:00 26.8 20 Sur 36 Sudoeste 0 -- -- 29
2017-08-11 15:00:00 26 21 Sur 32 Sur 0 -- -- 30
2017-08-11 14:00:00 24.3 16 Sudeste 26 Sudeste 0 -- -- 36
2017-08-11 13:00:00 23.1 12 Sur 21 Sudeste 0 -- -- 40
2017-08-11 12:00:00 21.7 9 Sur 19 Sudoeste 0 -- -- 45
2017-08-11 11:00:00 18.8 6 Noroeste 20 Noroeste 0 -- -- 53
2017-08-11 10:00:00 16.5 7 Noroeste 19 Noroeste 0 -- -- 60
2017-08-11 09:00:00 14.7 10 Norte 18 Noroeste 0 -- -- 68
2017-08-11 08:00:00 13.4 5 Norte 10 Norte 0 -- -- 73
2017-08-11 07:00:00 12.7 3 Nordeste 28 Oeste 0 -- -- 73
2017-08-11 06:00:00 13.6 7 Oeste 21 Noroeste 0 -- -- 67
2017-08-11 05:00:00 13.7 3 Sur 7 Oeste 0 -- -- 77
2017-08-11 04:00:00 14 0 Calma 8 Noroeste -- -- -- 75
2017-08-11 03:00:00 14.2 3 Norte 6 Norte 0 -- -- 78
2017-08-11 02:00:00 16.1 5 Noroeste 13 Oeste 0 -- -- 75
2017-08-11 01:00:00 16.6 4 Norte 11 Noroeste 0 -- -- 78
2017-08-11 00:00:00 17.7 8 Noroeste 13 Norte 0 -- -- 74
2017-08-10 23:00:00 19.1 9 Norte 17 Norte 0 -- -- 69
2017-08-10 22:00:00 21.1 9 Nordeste 33 Nordeste 0 -- -- 58
2017-08-10 21:00:00 23.1 4 Sudoeste 27 Oeste 0 -- -- 43
2017-08-10 20:00:00 24.8 9 Sudoeste 33 Sudoeste 0 -- -- 38
2017-08-10 19:00:00 25.7 24 Sudoeste 39 Sudoeste 0 -- -- 34
2017-08-10 18:00:00 26.8 20 Sudoeste 36 Sudoeste 0 -- -- 32
2017-08-10 17:00:00 26.3 12 Oeste 27 Sudoeste 0 -- -- 33
2017-08-10 16:00:00 25.7 12 Sudoeste 23 Sudoeste 0 -- -- 35
2017-08-10 15:00:00 25.1 14 Sudoeste 32 Sudoeste 0 -- -- 34
2017-08-10 14:00:00 23.7 9 Sur 21 Sudoeste 0 -- -- 43
2017-08-10 13:00:00 21.6 9 Sudeste 21 Sudeste 0 -- -- 51
2017-08-10 12:00:00 19.4 9 Sudeste 16 Sudeste 0 -- -- 60
2017-08-10 11:00:00 17.3 11 Sur 19 Sudoeste 0 -- -- 67
2017-08-10 10:00:00 14 8 Noroeste 16 Noroeste 0 -- -- 79
2017-08-10 09:00:00 12.3 8 Noroeste 17 Noroeste 0 -- -- 89
2017-08-10 08:00:00 12.7 11 Oeste 18 Oeste 0 -- -- 89
2017-08-10 07:00:00 13.3 6 Noroeste 14 Oeste 0 -- -- 90
2017-08-10 06:00:00 13.7 4 Nordeste 11 Oeste 0 -- -- 95
2017-08-10 05:00:00 14.4 3 Oeste 8 Oeste 0 -- -- 93
2017-08-10 04:00:00 15 3 Norte 16 Sur 0 -- -- 93
2017-08-10 03:00:00 15.5 9 Sur 14 Sur 0 -- -- 97
2017-08-10 02:00:00 15.6 2 Sur 11 Sudoeste 1.2 -- -- 95
2017-08-10 01:00:00 15.8 6 Sudoeste 12 Sudoeste 0.4 -- -- 95
2017-08-10 00:00:00 16.1 4 Sur 9 Sudeste 0 -- -- 95
2017-08-09 23:00:00 16.3 4 Sudeste 12 Sudoeste 1.2 -- -- 95
2017-08-09 22:00:00 16.4 4 Oeste 8 Oeste 0.6 -- -- 92
2017-08-09 21:00:00 16.8 5 Sudoeste 13 Sudoeste 2.2 -- -- 89
2017-08-09 20:00:00 19.9 5 Oeste 21 Noroeste 0 -- -- 60
2017-08-09 19:00:00 21.3 14 Noroeste 28 Noroeste 0 -- -- 54
2017-08-09 18:00:00 22.6 14 Sur 33 Sur 0 -- -- 65
2017-08-09 17:00:00 26.4 10 Sudoeste 30 Oeste 0 -- -- 46
2017-08-09 16:00:00 25.5 17 Noroeste 39 Norte 0 -- -- 38
2017-08-09 15:00:00 24.8 17 Noroeste 31 Noroeste 0 -- -- 39
2017-08-09 14:00:00 25 9 Oeste 24 Sudoeste 0 -- -- 37
2017-08-09 13:00:00 24.9 15 Sudoeste 36 Sudoeste 0 -- -- 39
2017-08-09 12:00:00 24.8 17 Sur 29 Sur 0 -- -- 37
2017-08-09 11:00:00 22.9 14 Sur 21 Sudeste 0 -- -- 45
2017-08-09 10:00:00 20.2 9 Sudeste 14 Sudeste 0 -- -- 52
2017-08-09 09:00:00 17.2 3 Nordeste 8 Norte 0 -- -- 64
2017-08-09 08:00:00 13.2 4 Norte 9 Norte 0 -- -- 79
2017-08-09 07:00:00 11.6 5 Norte 9 Norte 0 -- -- 85
2017-08-09 06:00:00 12.7 3 Norte 9 Noroeste 0 -- -- 86
2017-08-09 05:00:00 13.6 6 Norte 9 Norte 0 -- -- 83
2017-08-09 04:00:00 14.9 3 Norte 8 Norte 0 -- -- 85
2017-08-09 03:00:00 15.6 7 Norte 12 Norte 0 -- -- 86
2017-08-09 02:00:00 16.8 7 Norte 10 Noroeste 0 -- -- 82
2017-08-09 01:00:00 19 3 Nordeste 6 Norte 0 -- -- 75
2017-08-09 00:00:00 20.9 3 Sur 21 Sudoeste 0 -- -- 70
2017-08-08 23:00:00 21.7 13 Sudoeste 27 Sudoeste 0 -- -- 67
2017-08-08 22:00:00 22.7 19 Sur 30 Sur 0 -- -- 64
2017-08-08 21:00:00 24.2 17 Sur 25 Sur 0 -- -- 59
2017-08-08 20:00:00 26.6 13 Sur 37 Sudoeste 0 -- -- 52
2017-08-08 19:00:00 29.2 20 Sudoeste 38 Oeste 0 -- -- 29
2017-08-08 18:00:00 29.9 19 Oeste 45 Sudoeste 0 -- -- 29
2017-08-08 17:00:00 30.1 24 Sudoeste 41 Sudoeste 0 -- -- 35
2017-08-08 16:00:00 28.5 19 Sur 41 Sur 0 -- -- 50
2017-08-08 15:00:00 28.6 18 Sur 33 Sudoeste 0 -- -- 52
2017-08-08 14:00:00 28.5 13 Sudoeste 35 Sudoeste 0 -- -- 49
2017-08-08 13:00:00 28.4 14 Sudoeste 28 Sudoeste 0 -- -- 50
2017-08-08 12:00:00 28.3 10 Sudoeste 25 Oeste 0 -- -- 53
2017-08-08 11:00:00 27.4 6 Oeste 23 Oeste 0 -- -- 59
2017-08-08 10:00:00 26.6 3 Este 8 Nordeste 0 -- -- 64
2017-08-08 09:00:00 23.1 3 Norte 9 Norte 0 -- -- 71
2017-08-08 08:00:00 21.9 4 Norte 8 Nordeste 0 -- -- 74
2017-08-08 07:00:00 21.7 4 Nordeste 6 Nordeste 0 -- -- 74
2017-08-08 06:00:00 21.5 5 Noroeste 15 Norte 0 -- -- 80
2017-08-08 05:00:00 21.6 6 Norte 9 Norte 0 -- -- 75
2017-08-08 04:00:00 21.7 7 Norte 13 Este 0 -- -- 76
2017-08-08 03:00:00 21.7 4 Norte 11 Noroeste 0 -- -- 75
2017-08-08 02:00:00 22 3 Sudeste 15 Norte 0 -- -- 70
2017-08-08 01:00:00 22.5 5 Norte 13 Noroeste 0 -- -- 73
2017-08-08 00:00:00 23.5 4 Norte 16 Sudoeste 0 -- -- 70
2017-08-07 23:00:00 24.6 8 Sur 20 Sur 0 -- -- 67
2017-08-07 22:00:00 25.5 13 Sur 20 Sur 0 -- -- 58
2017-08-07 21:00:00 27 15 Sur 28 Sur 0 -- -- 50
2017-08-07 20:00:00 28.2 20 Sur 35 Sur 0 -- -- 49
2017-08-07 19:00:00 29.6 24 Sur 37 Sur 0 -- -- 51
2017-08-07 18:00:00 30.8 23 Sur 40 Sur 0 -- -- 51
2017-08-07 17:00:00 31.2 23 Sur 40 Sur 0 -- -- 51
2017-08-07 16:00:00 30.3 27 Sur 42 Sur 0 -- -- 53
2017-08-07 15:00:00 30.6 18 Sur 28 Sur 0 -- -- 51
2017-08-07 14:00:00 30 16 Sudoeste 29 Sur 0 -- -- 51
2017-08-07 13:00:00 28.4 10 Sur 25 Sur 0 -- -- 55
2017-08-07 12:00:00 27.4 6 Sudeste 13 Sudeste 0 -- -- 59
2017-08-07 11:00:00 23.4 3 Sudeste 6 Sudeste 0 -- -- 77
2017-08-07 10:00:00 22.6 4 Sur 6 Sudeste 0 -- -- 82
2017-08-07 09:00:00 21.3 2 Nordeste 5 Norte 0 -- -- 88
2017-08-07 08:00:00 19.5 3 Norte 5 Norte 0 -- -- 91
2017-08-07 07:00:00 18.8 3 Noroeste 7 Noroeste 0 -- -- 95
2017-08-07 06:00:00 19.5 0 Calma 8 Norte 0 -- -- 90
2017-08-07 05:00:00 19.5 4 Noroeste 6 Norte 0 -- -- 93
2017-08-07 04:00:00 20 4 Norte 7 Noroeste 0 -- -- 88
2017-08-07 03:00:00 20.8 2 Noroeste 5 Norte 0 -- -- 88
2017-08-07 02:00:00 21.5 3 Nordeste 10 Sur 0 -- -- 83
2017-08-07 01:00:00 22.8 5 Sur 8 Sudoeste 0 -- -- 81
2017-08-07 00:00:00 23.7 4 Sur 12 Sudoeste 0 -- -- 78
2017-08-06 23:00:00 24.6 8 Sur 22 Sur 0 -- -- 74
2017-08-06 22:00:00 25.6 16 Sur 25 Sur 0 -- -- 70
2017-08-06 21:00:00 26.7 17 Sur 32 Sur 0 -- -- 67
2017-08-06 20:00:00 28.4 21 Sur 42 Sur 0 -- -- 60
2017-08-06 19:00:00 29.7 28 Sur 40 Sur 0 -- -- 56
2017-08-06 18:00:00 30.4 24 Sur 35 Sudoeste 0 -- -- 52
2017-08-06 17:00:00 31.3 16 Sur 31 Sur 0 -- -- 45
2017-08-06 16:00:00 31.7 12 Sur 28 Sur 0 -- -- 44
2017-08-06 15:00:00 32 4 Sur 27 Sudoeste 0 -- -- 41
2017-08-06 14:00:00 33.2 15 Sur 29 Sur 0 -- -- 41
2017-08-06 13:00:00 31.3 10 Sur 27 Sur 0 -- -- 45
2017-08-06 12:00:00 29.9 9 Sur 15 Sur 0 -- -- 53
2017-08-06 11:00:00 27.5 3 Norte 9 Nordeste 0 -- -- 63
2017-08-06 10:00:00 24.6 3 Nordeste 9 Noroeste 0 -- -- 73
2017-08-06 09:00:00 22.6 4 Noroeste 7 Noroeste 0.8 -- -- 82
2017-08-06 08:00:00 21.6 4 Noroeste 7 Noroeste 0 -- -- 83
2017-08-06 07:00:00 20.5 4 Norte 9 Norte 0 -- -- 87
2017-08-06 06:00:00 21.2 4 Noroeste 14 Noroeste 0 -- -- 82
2017-08-06 05:00:00 21.4 4 Norte 8 Norte 0 -- -- 77
2017-08-06 04:00:00 21.7 3 Sudoeste 8 Norte 0 -- -- 76
2017-08-06 03:00:00 22.3 4 Noroeste 12 Noroeste 0 -- -- 74
2017-08-06 02:00:00 23.4 10 Noroeste 12 Noroeste 0 -- -- 69
2017-08-06 01:00:00 24.6 0 Calma 7 Noroeste 0 -- -- 64
2017-08-06 00:00:00 26.3 5 Sudoeste 9 Sudoeste 0 -- -- 60
2017-08-05 23:00:00 27.6 7 Sudoeste 19 Sur 0 -- -- 55
2017-08-05 22:00:00 29 12 Sur 21 Sudeste 0 -- -- 51
2017-08-05 21:00:00 30.1 13 Sur 30 Sur 0 -- -- 48
2017-08-05 20:00:00 31.8 19 Sur 32 Sur 0 -- -- 44
2017-08-05 19:00:00 33.4 22 Sur 40 Sur 0 -- -- 41
2017-08-05 18:00:00 34.7 26 Sur 39 Sur 0 -- -- 40
2017-08-05 17:00:00 36 25 Sur 38 Sur 0 -- -- 34
2017-08-05 16:00:00 37 22 Sur 37 Sur 0 -- -- 33
2017-08-05 15:00:00 36.9 20 Sur 33 Sur 0 -- -- 33
2017-08-05 14:00:00 36.4 16 Sur 33 Sudeste 0 -- -- 33
2017-08-05 13:00:00 34.8 9 Sur 26 Sudeste 0 -- -- 35
2017-08-05 12:00:00 33.4 17 Sur 28 Sur 0 -- -- 37
2017-08-05 11:00:00 31.9 8 Sudeste 14 Sudeste 0 -- -- 40
2017-08-05 10:00:00 28.5 3 Nordeste 7 Nordeste 0 -- -- 54
2017-08-05 09:00:00 24.8 4 Este 7 Este 0 -- -- 66
2017-08-05 08:00:00 21.3 0 Calma 4 Norte 0 -- -- 78
2017-08-05 07:00:00 19.5 2 Sur 4 Noroeste 0 -- -- 84
2017-08-05 06:00:00 20.1 2 Oeste 6 Noroeste 0 -- -- 84
2017-08-05 05:00:00 20.7 0 Calma 6 Noroeste 0 -- -- 80
2017-08-05 04:00:00 21.7 3 Norte 8 Norte 0 -- -- 76
2017-08-05 03:00:00 22.3 4 Norte 9 Noroeste 0 -- -- 75
2017-08-05 02:00:00 23.9 7 Noroeste 9 Noroeste 0 -- -- 70
2017-08-05 01:00:00 25 3 Noroeste 5 Norte 0 -- -- 66
2017-08-05 00:00:00 26.3 2 Norte 8 Sudoeste 0 -- -- 62
2017-08-04 23:00:00 27.6 4 Sudeste 16 Sudoeste 0 -- -- 58
2017-08-04 22:00:00 28.9 8 Sur 20 Sudeste 0 -- -- 55
2017-08-04 21:00:00 31.1 11 Sur 29 Sur 0 -- -- 49
2017-08-04 20:00:00 33.9 20 Sur 34 Sur 0 -- -- 41
2017-08-04 19:00:00 36.2 23 Sur 34 Sur 0 -- -- 36
2017-08-04 18:00:00 38.9 13 Oeste 32 Sudoeste 0 -- -- 23
2017-08-04 17:00:00 38.6 17 Sudoeste 28 Noroeste 0 -- -- 23
2017-08-04 16:00:00 39.2 11 Sudoeste 31 Noroeste 0 -- -- 23
2017-08-04 15:00:00 38 14 Sudoeste 30 Sudoeste 0 -- -- 25
2017-08-04 14:00:00 37.1 16 Sudoeste 29 Sudoeste 0 -- -- 28
2017-08-04 13:00:00 36.4 10 Sudoeste 26 Sudoeste 0 -- -- 31
2017-08-04 12:00:00 34 14 Sur 22 Sudeste 0 -- -- 36
2017-08-04 11:00:00 31.4 11 Sudeste 16 Sur 0 -- -- 42
2017-08-04 10:00:00 28 3 Sudeste 6 Nordeste 0 -- -- 49
2017-08-04 09:00:00 23.3 3 Norte 6 Norte 0 -- -- 62
2017-08-04 08:00:00 19.9 4 Norte 6 Norte 0 -- -- 72
2017-08-04 07:00:00 19 0 Calma 5 Noroeste 0 -- -- 74
2017-08-04 06:00:00 19.9 0 Calma 3 Sur 0 -- -- 71
2017-08-04 05:00:00 20.1 2 Sur 4 Sudoeste 0 -- -- 69
2017-08-04 04:00:00 21.3 2 Norte 7 Norte 0 -- -- 66
2017-08-04 03:00:00 22.7 5 Norte 9 Norte 0 -- -- 61
2017-08-04 02:00:00 23 4 Norte 11 Norte 0 -- -- 58
2017-08-04 01:00:00 24.5 5 Norte 9 Noroeste 0 -- -- 55
2017-08-04 00:00:00 26.1 6 Norte 12 Noroeste 0 -- -- 51
2017-08-03 23:00:00 28.3 9 Noroeste 10 Noroeste 0 -- -- 46
2017-08-03 22:00:00 30.8 3 Sur 11 Sur 0 -- -- 41
2017-08-03 21:00:00 32.3 7 Sur 25 Sur 0 -- -- 38
2017-08-03 20:00:00 33.6 17 Sur 31 Sur 0 -- -- 37
2017-08-03 19:00:00 34.5 22 Sur 38 Sur 0 -- -- 36
2017-08-03 18:00:00 34.7 26 Sur 38 Sur 0 -- -- 38
2017-08-03 17:00:00 35.9 25 Sur 41 Sur 0 -- -- 35
2017-08-03 16:00:00 36.9 24 Sur 44 Sur 0 -- -- 33
2017-08-03 15:00:00 37.7 28 Sur 41 Sur 0 -- -- 32
2017-08-03 14:00:00 38 21 Sur 34 Sudoeste 0 -- -- 26
2017-08-03 13:00:00 37.1 15 Sur 29 Sudoeste 0 -- -- 27
2017-08-03 12:00:00 35.3 9 Sur 18 Sur 0 -- -- 34
2017-08-03 11:00:00 32.3 6 Sur 13 Sur 0 -- -- 41
2017-08-03 10:00:00 29.2 7 Sur 10 Sur 0 -- -- 50
2017-08-03 09:00:00 25 4 Norte 10 Noroeste 0 -- -- 62
2017-08-03 08:00:00 21.1 5 Norte 9 Noroeste 0 -- -- 77
2017-08-03 07:00:00 20.3 4 Noroeste 7 Noroeste 0 -- -- 79
2017-08-03 06:00:00 21.4 5 Noroeste 9 Noroeste 0 -- -- 76
2017-08-03 05:00:00 21.7 0 Calma 8 Noroeste 0 -- -- 75
2017-08-03 04:00:00 22.8 2 Norte 8 Norte 0 -- -- 71
2017-08-03 03:00:00 23.5 5 Norte 9 Norte 0 -- -- 70
2017-08-03 02:00:00 23.4 8 Norte 10 Norte 0 -- -- 69
2017-08-03 01:00:00 24.3 4 Norte 7 Noroeste 0 -- -- 65
2017-08-03 00:00:00 24.7 4 Norte 13 Noroeste 0 -- -- 64
2017-08-02 23:00:00 27.1 6 Noroeste 9 Norte 0 -- -- 57
2017-08-02 22:00:00 29.3 7 Sur 16 Sudoeste 0 -- -- 51
2017-08-02 21:00:00 31.1 5 Sur 14 Sudeste 0 -- -- 48
2017-08-02 20:00:00 32.2 13 Sudeste 35 Sur 0 -- -- 46
2017-08-02 19:00:00 32.7 26 Sur 43 Sur 0 -- -- 45
2017-08-02 18:00:00 33.6 23 Sur 33 Sur 0 -- -- 42
2017-08-02 17:00:00 35.7 20 Sur 40 Sur 0 -- -- 38
2017-08-02 16:00:00 36.1 22 Sur 38 Sur 0 -- -- 37
2017-08-02 15:00:00 36.4 20 Sur 30 Sur 0 -- -- 35
2017-08-02 14:00:00 36.1 12 Sudeste 26 Sur 0 -- -- 32
2017-08-02 13:00:00 34.9 8 Sudeste 21 Sudeste 0 -- -- 35
2017-08-02 12:00:00 32.9 6 Sudeste 11 Sudeste 0 -- -- 39
2017-08-02 11:00:00 29.5 5 Sudeste 9 Sudeste 0 -- -- 46
2017-08-02 10:00:00 25.4 2 Sudeste 9 Sur 0 -- -- 54
2017-08-02 09:00:00 21.3 3 Sur 5 Sur 0 -- -- 70
2017-08-02 08:00:00 18.1 0 Calma 6 Norte 0 -- -- 82
2017-08-02 07:00:00 17 4 Norte 10 Norte 0 -- -- 83
2017-08-02 06:00:00 17.3 7 Noroeste 9 Noroeste 0 -- -- 83
2017-08-02 05:00:00 18.3 4 Noroeste 12 Norte 0 -- -- 80
2017-08-02 04:00:00 18.8 3 Noroeste 17 Norte 0 -- -- 78
2017-08-02 03:00:00 19 8 Norte 16 Norte 0 -- -- 80
2017-08-02 02:00:00 19.4 7 Norte 12 Noroeste 0 -- -- 80
2017-08-02 01:00:00 20 6 Noroeste 12 Noroeste 0 -- -- 81
2017-08-02 00:00:00 21.2 6 Norte 10 Noroeste 0 -- -- 76
2017-08-01 23:00:00 21.5 7 Norte 13 Noroeste 0 -- -- 73
2017-08-01 22:00:00 24.2 0 Calma 6 Sudoeste 0 -- -- 66
2017-08-01 21:00:00 26.1 0 Calma 18 Norte 0 -- -- 58
2017-08-01 20:00:00 26.8 13 Norte 22 Noroeste 0 -- -- 59
2017-08-01 19:00:00 25.8 8 Norte 19 Norte 0 -- -- 63
2017-08-01 18:00:00 25.5 4 Oeste 17 Nordeste 0.2 -- -- 68
2017-08-01 17:00:00 25.4 4 Norte 13 Sudoeste 0.4 -- -- 68
2017-08-01 16:00:00 28 5 Sudoeste 16 Oeste 0.2 -- -- 55
2017-08-01 15:00:00 27.9 5 Noroeste 12 Norte 0 -- -- 61
2017-08-01 14:00:00 28.3 5 Este 14 Sudeste 0 -- -- 63
2017-08-01 13:00:00 28.6 7 Sur 27 Sudeste 0 -- -- 60
2017-08-01 12:00:00 28.9 15 Sur 23 Sur 0 -- -- 53
2017-08-01 11:00:00 28.8 11 Sur 15 Sur 0 -- -- 53
2017-08-01 10:00:00 25.9 3 Este 8 Este 0 -- -- 53
2017-08-01 09:00:00 22.2 3 Nordeste 6 Norte 0 -- -- 69
2017-08-01 08:00:00 18.7 4 Norte 7 Noroeste 0 -- -- 87
2017-08-01 07:00:00 18.3 2 Sudeste 8 Norte 0 -- -- 88
2017-08-01 06:00:00 18.3 6 Norte 9 Noroeste 0 -- -- 88
2017-08-01 05:00:00 19.4 0 Calma 9 Norte 0 -- -- 85
2017-08-01 04:00:00 19.5 5 Norte 8 Noroeste 0 -- -- 86
2017-08-01 03:00:00 19.8 4 Norte 8 Noroeste 0 -- -- 85
2017-08-01 02:00:00 21.1 5 Norte 9 Noroeste 0 -- -- 84
2017-08-01 01:00:00 22 4 Norte 6 Norte 0 -- -- 80
2017-08-01 00:00:00 24.1 2 Norte 9 Sur 0 -- -- 73
2017-07-31 23:00:00 25.9 5 Sur 14 Sur 0 -- -- 67
2017-07-31 22:00:00 27.3 8 Sur 23 Sur 0 -- -- 61
2017-07-31 21:00:00 29.6 13 Sur 26 Sur 0 -- -- 53
2017-07-31 20:00:00 32.2 14 Sudoeste 27 Sur 0 -- -- 46
2017-07-31 19:00:00 34.4 17 Sur 31 Sur 0 -- -- 35
2017-07-31 18:00:00 36.2 13 Sudeste 35 Sur 0 -- -- 28
2017-07-31 17:00:00 36.9 17 Sur 34 Sudeste 0 -- -- 26
2017-07-31 16:00:00 37.2 16 Sur 30 Sudeste 0 -- -- 27
2017-07-31 15:00:00 37.8 17 Sur 29 Sur 0 -- -- 26
2017-07-31 14:00:00 36.4 11 Sudeste 30 Sur 0 -- -- 29
2017-07-31 13:00:00 35.7 16 Sur 25 Sudoeste 0 -- -- 30
2017-07-31 12:00:00 34.2 12 Sur 19 Sur 0 -- -- 32
2017-07-31 11:00:00 32 6 Sur 11 Sur 0 -- -- 34
2017-07-31 10:00:00 28.7 5 Sur 8 Sudeste 0 -- -- 40
2017-07-31 09:00:00 24.1 4 Nordeste 6 Este 0 -- -- 56
2017-07-31 08:00:00 20.2 0 Calma 5 Sur 0 -- -- 71
2017-07-31 07:00:00 19.4 0 Calma 7 Norte 0 -- -- 73
2017-07-31 06:00:00 18.9 0 Calma 4 Norte 0 -- -- 76
2017-07-31 05:00:00 20 0 Calma 13 Noroeste 0 -- -- 72
2017-07-31 04:00:00 20.2 4 Norte 7 Noroeste 0 -- -- 72
2017-07-31 03:00:00 20 4 Norte 8 Noroeste 0 -- -- 72
2017-07-31 02:00:00 20.3 6 Noroeste 9 Norte 0 -- -- 71
2017-07-31 01:00:00 21.9 5 Norte 10 Noroeste 0 -- -- 66
2017-07-31 00:00:00 23.2 4 Noroeste 11 Norte 0 -- -- 64
2017-07-30 23:00:00 25.4 0 Calma 12 Sudoeste 0 -- -- 56
2017-07-30 22:00:00 27 9 Sudoeste 14 Sudeste 0 -- -- 52
2017-07-30 21:00:00 29.1 10 Sur 32 Sudoeste 0 -- -- 46
2017-07-30 20:00:00 30.8 24 Sur 39 Sur 0 -- -- 46
2017-07-30 19:00:00 33.2 24 Sur 36 Sur 0 -- -- 40
2017-07-30 18:00:00 34.5 22 Sur 38 Sur 0 -- -- 36
2017-07-30 17:00:00 35.2 23 Sur 35 Sudoeste 0 -- -- 36
2017-07-30 16:00:00 35.4 21 Sur 33 Sudeste 0 -- -- 36
2017-07-30 15:00:00 35.1 18 Sur 30 Sudeste 0 -- -- 37
2017-07-30 14:00:00 34.2 14 Sur 27 Sur 0 -- -- 37
2017-07-30 13:00:00 32.7 9 Sudoeste 29 Oeste 0 -- -- 36
2017-07-30 12:00:00 31.7 13 Sur 26 Sur 0 -- -- 35
2017-07-30 11:00:00 29.5 8 Sur 12 Sudeste 0 -- -- 38
2017-07-30 10:00:00 26 4 Sudeste 7 Este 0 -- -- 48
2017-07-30 09:00:00 22.1 4 Nordeste 6 Nordeste 0 -- -- 63
2017-07-30 08:00:00 17.9 2 Nordeste 4 Nordeste 0 -- -- 75
2017-07-30 07:00:00 15.8 0 Calma 5 Sudoeste 0 -- -- 83
2017-07-30 06:00:00 16.9 2 Sur 8 Norte 0 -- -- 78
2017-07-30 05:00:00 17.4 4 Norte 7 Noroeste 0 -- -- 77
2017-07-30 04:00:00 18.7 6 Noroeste 10 Norte 0 -- -- 72
2017-07-30 03:00:00 18.4 5 Norte 8 Noroeste 0 -- -- 73
2017-07-30 02:00:00 20.1 5 Noroeste 8 Noroeste 0 -- -- 68
2017-07-30 01:00:00 21.7 7 Noroeste 10 Noroeste 0 -- -- 63
2017-07-30 00:00:00 22.2 6 Norte 10 Norte 0 -- -- 61
2017-07-29 23:00:00 25.8 0 Calma 18 Sudoeste 0 -- -- 50
2017-07-29 22:00:00 27.1 13 Sur 18 Sudoeste 0 -- -- 47
2017-07-29 21:00:00 28.7 10 Sur 27 Sur 0 -- -- 43
2017-07-29 20:00:00 30.5 21 Sur 33 Sur 0 -- -- 39
2017-07-29 19:00:00 32 22 Sur 37 Sur 0 -- -- 37
2017-07-29 18:00:00 33.1 24 Sur 36 Sur 0 -- -- 37
2017-07-29 17:00:00 33.7 24 Sur 37 Sur 0 -- -- 37
2017-07-29 16:00:00 33.7 20 Sur 35 Sur 0 -- -- 39
2017-07-29 15:00:00 33.5 20 Sur 36 Sur 0 -- -- 40
2017-07-29 14:00:00 33 16 Sur 28 Sudoeste 0 -- -- 39
2017-07-29 13:00:00 31.6 13 Sur 29 Sudoeste 0 -- -- 41
2017-07-29 12:00:00 30.1 7 Sudeste 17 Sudeste 0 -- -- 42
2017-07-29 11:00:00 27.9 7 Sudeste 13 Sudeste 0 -- -- 47
2017-07-29 10:00:00 25.1 4 Sur 8 Sur 0 -- -- 64
2017-07-29 09:00:00 21.2 6 Norte 9 Noroeste 0 -- -- 77
2017-07-29 08:00:00 18.4 0 Calma 4 Oeste 0 -- -- 85
2017-07-29 07:00:00 16.7 3 Noroeste 8 Norte 0 -- -- 92
2017-07-29 06:00:00 17 2 Noroeste 8 Noroeste 0 -- -- 90
2017-07-29 05:00:00 17.4 0 Calma 5 Norte 0 -- -- 89
2017-07-29 04:00:00 17.8 5 Noroeste 8 Noroeste 0 -- -- 88
2017-07-29 03:00:00 19.4 0 Calma 10 Norte 0 -- -- 82
2017-07-29 02:00:00 19.7 6 Norte 9 Noroeste 0 -- -- 80
2017-07-29 01:00:00 21.8 0 Calma 7 Noroeste 0 -- -- 74
2017-07-29 00:00:00 23.2 4 Sudoeste 11 Sudoeste 0 -- -- 70
2017-07-28 23:00:00 24.3 2 Este 15 Sur 0 -- -- 65
2017-07-28 22:00:00 25.5 11 Sur 16 Sur 0 -- -- 62
2017-07-28 21:00:00 27 12 Sur 32 Sur 0 -- -- 58
2017-07-28 20:00:00 29 22 Sur 33 Sur 0 -- -- 52
2017-07-28 19:00:00 31 23 Sur 35 Sur 0 -- -- 48
2017-07-28 18:00:00 32.5 20 Sur 32 Sur 0 -- -- 43
2017-07-28 17:00:00 33.2 20 Sur 32 Sur 0 -- -- 41
2017-07-28 16:00:00 32.9 19 Sur 31 Sur 0 -- -- 43
2017-07-28 15:00:00 32.7 17 Sur 32 Sur 0 -- -- 43
2017-07-28 14:00:00 31.6 15 Sur 29 Sur 0 -- -- 46
2017-07-28 13:00:00 30.2 14 Sur 32 Sur 0 -- -- 48
2017-07-28 12:00:00 29 14 Sur 27 Sur 0 -- -- 57
2017-07-28 11:00:00 27.7 8 Sudeste 19 Sudeste 0 -- -- 57
2017-07-28 10:00:00 26 5 Sudeste 10 Sudeste 0 -- -- 60
2017-07-28 09:00:00 22.7 4 Sur 9 Norte 0 -- -- 72
2017-07-28 08:00:00 19.9 3 Este 8 Norte 0 -- -- 83
2017-07-28 07:00:00 17.5 0 Calma 8 Noroeste 0 -- -- 92
2017-07-28 06:00:00 17.8 4 Norte 7 Norte 0 -- -- 90
2017-07-28 05:00:00 18.6 5 Norte 8 Noroeste 0 -- -- 89
2017-07-28 04:00:00 18.7 0 Calma 6 Noroeste 0 -- -- 87
2017-07-28 03:00:00 20 4 Noroeste 8 Noroeste 0 -- -- 84
2017-07-28 02:00:00 21.3 5 Noroeste 7 Noroeste 0 -- -- 81
2017-07-28 01:00:00 22.1 4 Norte 10 Noroeste 0 -- -- 75
2017-07-28 00:00:00 24.1 5 Noroeste 12 Norte 0 -- -- 69
2017-07-27 23:00:00 25.6 4 Este 19 Sudoeste 0 -- -- 66
2017-07-27 22:00:00 26.8 5 Sur 23 Sur 0 -- -- 56
2017-07-27 21:00:00 28.1 17 Sur 27 Sur 0 -- -- 54
2017-07-27 20:00:00 29.9 21 Sur 36 Sur 0 -- -- 50
2017-07-27 19:00:00 31.5 23 Sur 41 Sudoeste 0 -- -- 44
2017-07-27 18:00:00 32.8 24 Sur 37 Sur 0 -- -- 43
2017-07-27 17:00:00 34.3 23 Sur 40 Sudoeste 0 -- -- 39
2017-07-27 16:00:00 35.2 12 Sudoeste 33 Noroeste 0 -- -- 24
2017-07-27 15:00:00 34.4 10 Oeste 40 Sudoeste 0 -- -- 24
2017-07-27 14:00:00 33.6 13 Sudoeste 27 Sudeste 0 -- -- 26
2017-07-27 13:00:00 30.3 10 Este 20 Sudeste 0 -- -- 40
2017-07-27 12:00:00 27.7 9 Sudeste 15 Sur 0 -- -- 48
2017-07-27 11:00:00 25 7 Sudeste 11 Este 0 -- -- 55
2017-07-27 10:00:00 23 4 Este 9 Sur 0 -- -- 62
2017-07-27 09:00:00 20 3 Este 8 Sudeste 0 -- -- 71
2017-07-27 08:00:00 16.2 4 Norte 7 Noroeste 0 -- -- 84
2017-07-27 07:00:00 14.3 2 Noroeste 7 Norte 0 -- -- 91
2017-07-27 06:00:00 15.3 5 Noroeste 8 Norte 0 -- -- 84
2017-07-27 05:00:00 15.5 3 Norte 8 Norte 0 -- -- 84
2017-07-27 04:00:00 15.7 6 Noroeste 8 Norte 0 -- -- 86
2017-07-27 03:00:00 17.2 3 Noroeste 11 Noroeste 0 -- -- 81
2017-07-27 02:00:00 18.3 4 Oeste 8 Norte 0 -- -- 79
2017-07-27 01:00:00 19.5 2 Sur 5 Sudoeste 0 -- -- 74
2017-07-27 00:00:00 20.8 4 Sudoeste 9 Sudoeste 0 -- -- 73
2017-07-26 23:00:00 21.7 6 Sudoeste 15 Sur 0 -- -- 69
2017-07-26 22:00:00 22.9 12 Sur 19 Sur 0 -- -- 65
2017-07-26 21:00:00 24.8 10 Sur 24 Sur 0 -- -- 60
2017-07-26 20:00:00 26.3 19 Sur 29 Sur 0 -- -- 54
2017-07-26 19:00:00 27.7 18 Sur 32 Sur 0 -- -- 50
2017-07-26 18:00:00 28.2 22 Sur 37 Sur 0 -- -- 49
2017-07-26 17:00:00 30.6 10 Sudoeste 27 Sudoeste 0 -- -- 27
2017-07-26 16:00:00 29.4 9 Sudoeste 28 Noroeste 0 -- -- 28
2017-07-26 15:00:00 28.9 13 Noroeste 24 Sudoeste 0 -- -- 27
2017-07-26 14:00:00 27.9 13 Sudoeste 30 Sudoeste 0 -- -- 31
2017-07-26 13:00:00 26.5 12 Oeste 23 Sudoeste 0 -- -- 33
2017-07-26 12:00:00 25.1 7 Noroeste 21 Sudoeste 0 -- -- 43
2017-07-26 11:00:00 22.6 6 Sudoeste 16 Sudoeste 0 -- -- 49
2017-07-26 10:00:00 20.1 9 Sudoeste 16 Sudoeste 0 -- -- 57
2017-07-26 09:00:00 17.8 6 Noroeste 14 Noroeste 0 -- -- 63
2017-07-26 08:00:00 15.8 3 Norte 9 Noroeste 0 -- -- 72
2017-07-26 07:00:00 15.5 2 Norte 6 Noroeste 0 -- -- 72
2017-07-26 06:00:00 15.7 3 Noroeste 7 Nordeste 0 -- -- 71
2017-07-26 05:00:00 16.7 5 Norte 15 Noroeste 0 -- -- 69
2017-07-26 04:00:00 17.3 4 Sudoeste 15 Noroeste 0 -- -- 67
2017-07-26 03:00:00 17.9 4 Norte 9 Oeste 0 -- -- 78
2017-07-26 02:00:00 18.5 6 Noroeste 9 Norte 0 -- -- 89
2017-07-26 01:00:00 19.8 3 Norte 12 Sudoeste 0 -- -- 83
2017-07-26 00:00:00 20.7 8 Sudoeste 20 Sur 0 -- -- 80
2017-07-25 23:00:00 21.3 10 Sur 27 Sur 0 -- -- 77
2017-07-25 22:00:00 22.1 18 Sur 31 Sur 0 -- -- 72
2017-07-25 21:00:00 23.2 22 Sur 40 Sur 0 -- -- 67
2017-07-25 20:00:00 25 24 Sur 41 Sur 0 -- -- 58
2017-07-25 19:00:00 27.4 21 Sur 41 Sur 0 -- -- 50
2017-07-25 18:00:00 29 21 Sur 39 Sudoeste 0 -- -- 44
2017-07-25 17:00:00 30.8 13 Sudoeste 30 Noroeste 0 -- -- 27
2017-07-25 16:00:00 30 11 Oeste 33 Sudoeste 0 -- -- 26
2017-07-25 15:00:00 29.4 9 Oeste 30 Sudoeste 0 -- -- 27
2017-07-25 14:00:00 28.6 8 Sudoeste 26 Sudoeste 0 -- -- 31
2017-07-25 13:00:00 27.3 13 Sur 26 Sur 0 -- -- 38
2017-07-25 12:00:00 24.5 8 Sudoeste 23 Sudoeste 0 -- -- 45
2017-07-25 11:00:00 22.8 7 Sudoeste 14 Sudoeste 0 -- -- 50
2017-07-25 10:00:00 20.9 9 Noroeste 19 Noroeste 0 -- -- 56
2017-07-25 09:00:00 19 11 Sudoeste 20 Sudoeste 0 -- -- 64
2017-07-25 08:00:00 18.5 3 Este 8 Sudoeste 0 -- -- 66
2017-07-25 07:00:00 17.1 4 Noroeste 8 Norte 0 -- -- 70
2017-07-25 06:00:00 17.8 3 Norte 18 Norte 0 -- -- 67
2017-07-25 05:00:00 18.4 6 Norte 9 Norte 0 -- -- 66
2017-07-25 04:00:00 18.7 2 Nordeste 7 Nordeste 0 -- -- 67
2017-07-25 03:00:00 18.1 5 Norte 8 Norte 0 -- -- 72
2017-07-25 02:00:00 20.3 8 Sudoeste 13 Sur 0 -- -- 66
2017-07-25 01:00:00 21 8 Sur 11 Sur 0 -- -- 81
2017-07-25 00:00:00 22.1 6 Sur 14 Sur 0 -- -- 75
2017-07-24 23:00:00 23.3 6 Sur 15 Sudeste 0 -- -- 69
2017-07-24 22:00:00 24.8 12 Sudeste 22 Sudeste 0 -- -- 62
2017-07-24 21:00:00 27.5 15 Sur 36 Sudoeste 0 -- -- 49
2017-07-24 20:00:00 29.9 18 Sudoeste 33 Sudoeste 0 -- -- 35
2017-07-24 19:00:00 31.4 19 Sudoeste 36 Sudoeste 0 -- -- 32
2017-07-24 18:00:00 32.2 10 Oeste 30 Oeste 0 -- -- 32
2017-07-24 17:00:00 30.8 17 Oeste 35 Oeste 0 -- -- 34
2017-07-24 16:00:00 31 13 Noroeste 25 Noroeste 0 -- -- 34
2017-07-24 15:00:00 31.5 11 Sudoeste 32 Sur 0 -- -- 35
2017-07-24 14:00:00 29.6 7 Sudoeste 27 Sudoeste 0 -- -- 39
2017-07-24 13:00:00 28.7 10 Sudoeste 28 Sudoeste 0 -- -- 43
2017-07-24 12:00:00 27.1 12 Sudoeste 30 Sudoeste 0 -- -- 47
2017-07-24 11:00:00 25.3 13 Sudoeste 33 Noroeste 0 -- -- 51
2017-07-24 10:00:00 22.1 10 Noroeste 24 Noroeste 0 -- -- 60
2017-07-24 09:00:00 21 6 Sur 12 Sur 0 -- -- 64
2017-07-24 08:00:00 17.6 3 Norte 8 Noroeste 0 -- -- 84
2017-07-24 07:00:00 15.8 4 Norte 7 Noroeste 0 -- -- 94
2017-07-24 06:00:00 16.3 3 Sudoeste 8 Noroeste 0 -- -- 93
2017-07-24 05:00:00 17.5 5 Noroeste 9 Noroeste 0 -- -- 90
2017-07-24 04:00:00 18.5 2 Noroeste 5 Norte 0 -- -- 85
2017-07-24 03:00:00 19.3 4 Norte 6 Sudeste 0 -- -- 84
2017-07-24 02:00:00 19.8 3 Sudeste 8 Sur 0 -- -- 83
2017-07-24 01:00:00 20.2 6 Sur 17 Sur 0 -- -- 79
2017-07-24 00:00:00 20.7 12 Sur 21 Sur 0 -- -- 77
2017-07-23 23:00:00 21.7 11 Sur 17 Sur 0 -- -- 68
2017-07-23 22:00:00 21.9 5 Noroeste 13 Norte 0 -- -- 66
2017-07-23 21:00:00 22 5 Noroeste 15 Noroeste 0 -- -- 72
2017-07-23 20:00:00 21.3 10 Sur 51 Sur 0 -- -- 76
2017-07-23 19:00:00 25.3 31 Sur 45 Sur 0 -- -- 65
2017-07-23 18:00:00 28 28 Sur 40 Sur 0 -- -- 55
2017-07-23 17:00:00 30.1 20 Sur 35 Sudoeste 0 -- -- 49
2017-07-23 16:00:00 30.4 22 Sur 34 Sur 0 -- -- 50
2017-07-23 15:00:00 29.8 14 Sudoeste 27 Sudoeste 0 -- -- 52
2017-07-23 14:00:00 28.8 5 Sudeste 24 Sur 0 -- -- 56
2017-07-23 13:00:00 27.9 10 Sudeste 19 Sudoeste 0 -- -- 60
2017-07-23 12:00:00 25.7 13 Sur 25 Sur 0 -- -- 68
2017-07-23 11:00:00 25.6 9 Sudeste 23 Sur 0 -- -- 68
2017-07-23 10:00:00 25.1 6 Este 11 Nordeste 0 -- -- 71
2017-07-23 09:00:00 22 3 Nordeste 5 Nordeste 0 -- -- 79
2017-07-23 08:00:00 19 0 Calma 6 Noroeste 0 -- -- 88
2017-07-23 07:00:00 17.8 4 Norte 6 Noroeste 0 -- -- 94
2017-07-23 06:00:00 17.7 2 Noroeste 6 Norte 0 -- -- 94
2017-07-23 05:00:00 17.9 3 Noroeste 8 Noroeste 0 -- -- 91
2017-07-23 04:00:00 19.3 3 Nordeste 9 Noroeste 0 -- -- 86
2017-07-23 03:00:00 18.6 3 Norte 8 Noroeste 0 -- -- 89
2017-07-23 02:00:00 20.4 10 Noroeste 11 Noroeste 0 -- -- 86
2017-07-23 01:00:00 21.2 7 Noroeste 9 Noroeste 0 -- -- 81
2017-07-23 00:00:00 23.1 0 Calma 8 Sudoeste 0 -- -- 74
2017-07-22 23:00:00 24.4 5 Sudoeste 23 Sur 0 -- -- 71
2017-07-22 22:00:00 25.3 17 Sur 26 Sur 0 -- -- 68
2017-07-22 21:00:00 26.9 19 Sur 30 Sur 0 -- -- 64
2017-07-22 20:00:00 29 21 Sur 30 Sudoeste 0 -- -- 56
2017-07-22 19:00:00 30.6 19 Sur 34 Sur 0 -- -- 50
2017-07-22 18:00:00 31.2 19 Sur 35 Sudoeste 0 -- -- 47
2017-07-22 17:00:00 31.1 21 Sur 39 Sudoeste 0 -- -- 48
2017-07-22 16:00:00 31 21 Sur 35 Sur 0 -- -- 51
2017-07-22 15:00:00 30.8 21 Sur 37 Sur 0 -- -- 50
2017-07-22 14:00:00 30.2 19 Sur 31 Sur 0 -- -- 48
2017-07-22 13:00:00 29.9 13 Sur 25 Sudoeste 0 -- -- 46
2017-07-22 12:00:00 28 9 Sudeste 21 Sur 0 -- -- 48
2017-07-22 11:00:00 26.1 11 Sur 16 Sur 0 -- -- 60
2017-07-22 10:00:00 23.6 3 Este 8 Nordeste 0 -- -- 72
2017-07-22 09:00:00 20.2 3 Sudeste 6 Este 0 -- -- 80
2017-07-22 08:00:00 16.9 3 Norte 6 Noroeste 0 -- -- 94
2017-07-22 07:00:00 15.7 3 Norte 4 Norte 0 -- -- 95
2017-07-22 06:00:00 15.8 3 Noroeste 4 Noroeste 0 -- -- 95
2017-07-22 05:00:00 16.4 2 Noroeste 8 Noroeste 0 -- -- 95
2017-07-22 04:00:00 17.1 3 Noroeste 10 Norte 0 -- -- 89
2017-07-22 03:00:00 17.5 5 Norte 8 Norte 0 -- -- 90
2017-07-22 02:00:00 18 4 Norte 8 Noroeste 0 -- -- 89
2017-07-22 01:00:00 19.3 5 Norte 13 Noroeste 0 -- -- 85
2017-07-22 00:00:00 21.1 6 Norte 12 Noroeste 0 -- -- 80
2017-07-21 23:00:00 22.9 6 Sur 19 Sur 0 -- -- 74
2017-07-21 22:00:00 23.7 12 Sur 18 Sur 0 -- -- 69
2017-07-21 21:00:00 25 9 Sur 16 Sur 0 -- -- 63
2017-07-21 20:00:00 26.4 10 Sudoeste 23 Sur 0 -- -- 57
2017-07-21 19:00:00 26.5 14 Sur 23 Sur 0 -- -- 55
2017-07-21 18:00:00 26.1 13 Sur 18 Sudeste 0 -- -- 58
2017-07-21 17:00:00 24.2 11 Sur 21 Sudeste 0 -- -- 69
2017-07-21 16:00:00 23.6 12 Sur 21 Sur 0 -- -- 73
2017-07-21 15:00:00 21.4 13 Sur 20 Sur 0.2 -- -- 84
2017-07-21 14:00:00 20.9 4 Sur 15 Sudoeste 0 -- -- 88
2017-07-21 13:00:00 20.3 10 Sudoeste 18 Sudoeste 0.8 -- -- 90
2017-07-21 12:00:00 21.2 17 Nordeste 25 Nordeste 1 -- -- 84
2017-07-21 11:00:00 21.8 4 Noroeste 14 Oeste 0.6 -- -- 81
2017-07-21 10:00:00 23.3 4 Sudeste 8 Nordeste 0 -- -- 65
2017-07-21 09:00:00 20.4 5 Norte 9 Norte 0 -- -- 75
2017-07-21 08:00:00 17.6 6 Noroeste 10 Noroeste 0 -- -- 86
2017-07-21 07:00:00 16.7 4 Noroeste 10 Noroeste 0 -- -- 90
2017-07-21 06:00:00 16.8 4 Sudoeste 8 Noroeste 0 -- -- 89
2017-07-21 05:00:00 17.4 6 Norte 12 Noroeste 0 -- -- 87
2017-07-21 04:00:00 18.1 6 Noroeste 9 Noroeste 0 -- -- 86
2017-07-21 03:00:00 18.8 0 Calma 6 Noroeste 0 -- -- 82
2017-07-21 02:00:00 19.1 6 Noroeste 8 Noroeste 0 -- -- 80
2017-07-21 01:00:00 20.1 2 Norte 7 Sur 0 -- -- 74
2017-07-21 00:00:00 20.7 6 Norte 10 Norte 0 -- -- 75
2017-07-20 23:00:00 21.6 3 Noroeste 15 Noroeste 0 -- -- 68
2017-07-20 22:00:00 23 7 Noroeste 22 Norte 0 -- -- 65
2017-07-20 21:00:00 24.4 13 Norte 24 Nordeste 0 -- -- 60
2017-07-20 20:00:00 26 13 Norte 28 Este 0 -- -- 55
2017-07-20 19:00:00 30.2 15 Sur 33 Sudoeste 0 -- -- 48
2017-07-20 18:00:00 29.9 17 Sur 28 Sur 0 -- -- 50
2017-07-20 17:00:00 30.5 18 Sur 30 Sur 0 -- -- 50
2017-07-20 16:00:00 32.6 10 Sur 26 Sudoeste 0 -- -- 39
2017-07-20 15:00:00 31.5 13 Sur 22 Sur 0 -- -- 41
2017-07-20 14:00:00 30.7 5 Sudeste 19 Este 0 -- -- 42
2017-07-20 13:00:00 29.8 5 Sur 18 Este 0 -- -- 44
2017-07-20 12:00:00 29.5 8 Nordeste 25 Este 0 -- -- 45
2017-07-20 11:00:00 28 12 Este 31 Norte 0 -- -- 49
2017-07-20 10:00:00 26.4 12 Nordeste 22 Nordeste 0 -- -- 52
2017-07-20 09:00:00 24.3 8 Nordeste 16 Nordeste 0 -- -- 63
2017-07-20 08:00:00 19.3 4 Norte 9 Norte 0 -- -- 80
2017-07-20 07:00:00 17.3 4 Norte 6 Norte 0 -- -- 83
2017-07-20 06:00:00 17.7 3 Sudoeste 9 Norte 0 -- -- 82
2017-07-20 05:00:00 17.1 6 Norte 9 Norte 0 -- -- 86
2017-07-20 04:00:00 18.2 3 Noroeste 9 Norte 0 -- -- 83
2017-07-20 03:00:00 19.7 6 Norte 8 Norte 0 -- -- 72
2017-07-20 02:00:00 20.2 6 Noroeste 8 Noroeste 0 -- -- 79
2017-07-20 01:00:00 22.2 3 Noroeste 17 Sur 0 -- -- 69
2017-07-20 00:00:00 23.5 10 Sur 17 Sur 0 -- -- 67
2017-07-19 23:00:00 24.5 4 Sur 17 Sur 0 -- -- 58
2017-07-19 22:00:00 25.6 16 Sur 21 Sur 0 -- -- 53
2017-07-19 21:00:00 27.4 10 Sur 19 Sur 0 -- -- 46
2017-07-19 20:00:00 29.4 10 Sur 26 Sur 0 -- -- 37
2017-07-19 19:00:00 30.8 14 Sur 26 Sur 0 -- -- 36
2017-07-19 18:00:00 31.6 16 Sur 32 Sur 0 -- -- 37
2017-07-19 17:00:00 31.4 20 Sur 41 Sur 0 -- -- 39
2017-07-19 16:00:00 32.2 26 Sur 40 Sur 0 -- -- 36
2017-07-19 15:00:00 33.5 28 Sur 39 Sur 0 -- -- 33
2017-07-19 14:00:00 34.1 18 Sur 32 Sudoeste 0 -- -- 25
2017-07-19 13:00:00 33.5 14 Sur 22 Sur 0 -- -- 26
2017-07-19 12:00:00 31.1 5 Sur 11 Sur 0 -- -- 30
2017-07-19 11:00:00 29.6 5 Nordeste 11 Este 0 -- -- 35
2017-07-19 10:00:00 25.2 3 Este 9 Sudoeste 0 -- -- 56
2017-07-19 09:00:00 21.6 3 Sudeste 13 Norte 0 -- -- 75
2017-07-19 08:00:00 19 4 Norte 9 Norte 0 -- -- 86
2017-07-19 07:00:00 18.5 2 Este 9 Noroeste 0 -- -- 83
2017-07-19 06:00:00 18.3 8 Noroeste 11 Noroeste 0 -- -- 85
2017-07-19 05:00:00 20 6 Noroeste 13 Noroeste 0 -- -- 79
2017-07-19 04:00:00 21 7 Noroeste 9 Noroeste 0 -- -- 77
2017-07-19 03:00:00 21.9 3 Sur 19 Sudoeste 0 -- -- 75
2017-07-19 02:00:00 22.1 9 Sur 16 Sur 0 -- -- 72
2017-07-19 01:00:00 23.2 6 Sur 15 Sur 0 -- -- 66
2017-07-19 00:00:00 23.9 8 Sudoeste 13 Sudoeste 0 -- -- 62